Time;durP1;ratioP1;P1;durP2;ratioP2;P2;SDS_P1;SDS_P2;PMS_P1;PMS_P2;Temp;Humidity;BMP_temperature;BMP_pressure;BME280_temperature;BME280_humidity;BME280_pressure;Samples;Min_cycle;Max_cycle;Signal;HPM_P1;HPM_P2
2022/07/28 00:00:07;;;;;;;20.20;18.50;;;;;;;-144.27;100.00;69759.91;2057776;28;20445;-73
2022/07/28 00:01:08;;;;;;;19.70;18.17;;;;;;;-144.27;100.00;69759.91;2058468;28;20202;-73
2022/07/28 00:02:10;;;;;;;20.13;18.40;;;;;;;-144.27;100.00;69759.91;2057726;28;20444;-73
2022/07/28 00:03:11;;;;;;;20.47;18.43;;;;;;;-144.27;100.00;69759.91;2058004;28;20844;-73
2022/07/28 00:04:13;;;;;;;19.87;18.30;;;;;;;-144.27;100.00;69759.91;2057689;28;20468;-73
2022/07/28 00:05:13;;;;;;;20.23;18.60;;;;;;;-144.27;100.00;69759.91;2057970;28;20217;-73
2022/07/28 00:06:15;;;;;;;20.40;18.50;;;;;;;-144.27;100.00;69759.91;2066152;28;20455;-73
2022/07/28 00:07:15;;;;;;;21.23;19.10;;;;;;;-144.27;100.00;69759.91;2066430;28;20200;-73
2022/07/28 00:08:19;;;;;;;20.00;18.30;;;;;;;-144.27;100.00;69759.91;2057089;28;20445;-73
2022/07/28 00:09:23;;;;;;;20.97;19.17;;;;;;;-144.27;100.00;69759.91;2058203;28;20276;-72
2022/07/28 00:10:25;;;;;;;20.63;19.03;;;;;;;-144.27;100.00;69759.91;2057783;28;20490;-73
2022/07/28 00:11:25;;;;;;;21.10;18.93;;;;;;;-144.27;100.00;69759.91;2049702;28;20778;-73
2022/07/28 00:12:27;;;;;;;20.37;18.67;;;;;;;-144.27;100.00;69759.91;2057806;28;20441;-73
2022/07/28 00:13:27;;;;;;;20.03;18.53;;;;;;;-144.27;100.00;69759.91;2066420;28;20247;-73
2022/07/28 00:14:29;;;;;;;19.77;18.20;;;;;;;-144.27;100.00;69759.91;2057546;28;20449;-72
2022/07/28 00:15:32;;;;;;;20.00;18.30;;;;;;;-144.27;100.00;69759.91;2057832;28;20727;-73
2022/07/28 00:16:33;;;;;;;20.07;18.13;;;;;;;-144.27;100.00;69759.91;2057388;28;20987;-72
2022/07/28 00:17:38;;;;;;;20.17;18.47;;;;;;;-144.27;100.00;69759.91;2058011;28;20402;-73
2022/07/28 00:18:38;;;;;;;20.00;18.50;;;;;;;-144.27;100.00;69759.91;2058439;28;20845;-73
2022/07/28 00:19:40;;;;;;;20.13;18.53;;;;;;;-144.27;100.00;69759.91;2058335;28;20452;-72
2022/07/28 00:20:41;;;;;;;20.40;18.53;;;;;;;-144.27;100.00;69759.91;2058324;28;20661;-73
2022/07/28 00:21:44;;;;;;;19.57;18.07;;;;;;;-144.27;100.00;69759.91;2057921;28;20473;-72
2022/07/28 00:22:46;;;;;;;19.77;18.00;;;;;;;-144.27;100.00;69759.91;2057988;28;20649;-72
2022/07/28 00:23:49;;;;;;;21.20;19.13;;;;;;;-144.27;100.00;69759.91;2057534;28;20441;-72
2022/07/28 00:24:51;;;;;;;20.80;18.90;;;;;;;-144.27;100.00;69759.91;2057761;28;20868;-72
2022/07/28 00:25:52;;;;;;;20.93;19.23;;;;;;;-144.27;100.00;69759.91;2065595;28;20441;-72
2022/07/28 00:26:53;;;;;;;20.93;19.23;;;;;;;-144.27;100.00;69759.91;2065697;28;20453;-73
2022/07/28 00:27:55;;;;;;;21.60;19.80;;;;;;;-144.27;100.00;69759.91;2057675;28;20460;-73
2022/07/28 00:28:55;;;;;;;21.27;19.40;;;;;;;-144.27;100.00;69759.91;2057869;28;20198;-72
2022/07/28 00:30:00;;;;;;;20.77;19.07;;;;;;;-144.27;100.00;69759.91;2058454;28;20431;-72
2022/07/28 00:31:00;;;;;;;20.67;19.07;;;;;;;-144.27;100.00;69759.91;2057467;28;20260;-72
2022/07/28 00:32:02;;;;;;;21.13;19.53;;;;;;;-144.27;100.00;69759.91;2057834;28;20527;-73
2022/07/28 00:33:03;;;;;;;21.53;19.73;;;;;;;-144.27;100.00;69759.91;2057558;28;20213;-72
2022/07/28 00:34:04;;;;;;;21.53;19.83;;;;;;;-144.27;100.00;69759.91;2057708;28;20441;-72
2022/07/28 00:35:06;;;;;;;21.00;19.40;;;;;;;-144.27;100.00;69759.91;2057551;28;20201;-72
2022/07/28 00:36:08;;;;;;;20.73;19.00;;;;;;;-144.27;100.00;69759.91;2056933;28;20449;-72
2022/07/28 00:37:10;;;;;;;20.80;18.97;;;;;;;-144.27;100.00;69759.91;2057602;28;20460;-73
2022/07/28 00:38:12;;;;;;;21.20;19.20;;;;;;;-144.27;100.00;69759.91;2057543;28;20436;-72
2022/07/28 00:39:12;;;;;;;21.17;19.20;;;;;;;-144.27;100.00;69759.91;2057701;28;20515;-73
2022/07/28 00:40:16;;;;;;;20.37;18.77;;;;;;;-144.27;100.00;69759.91;2057536;28;20449;-72
2022/07/28 00:41:19;;;;;;;20.83;19.27;;;;;;;-144.27;100.00;69759.91;2057417;28;20288;-73
2022/07/28 00:42:21;;;;;;;19.67;18.17;;;;;;;-144.27;100.00;69759.91;2057581;28;20447;-72
2022/07/28 00:43:23;;;;;;;20.10;18.40;;;;;;;-144.27;100.00;69759.91;2058105;28;20495;-72
2022/07/28 00:44:26;;;;;;;19.27;17.87;;;;;;;-144.27;100.00;69759.91;2058110;28;20520;-72
2022/07/28 00:45:27;;;;;;;20.17;18.57;;;;;;;-144.27;100.00;69759.91;2058082;28;20533;-72
2022/07/28 00:46:29;;;;;;;20.53;18.77;;;;;;;-144.27;100.00;69759.91;2058235;28;20468;-72
2022/07/28 00:47:29;;;;;;;20.27;18.47;;;;;;;-144.27;100.00;69759.91;2057424;28;20484;-73
2022/07/28 00:48:31;;;;;;;20.40;18.90;;;;;;;-144.27;100.00;69759.91;2057519;28;20421;-72
2022/07/28 00:49:32;;;;;;;20.67;19.00;;;;;;;-144.27;100.00;69759.91;2057392;28;20300;-72
2022/07/28 00:50:35;;;;;;;20.27;18.67;;;;;;;-144.27;100.00;69759.91;2057546;28;20453;-72
2022/07/28 00:51:36;;;;;;;20.40;18.73;;;;;;;-144.27;100.00;69759.91;2065069;28;20971;-72
2022/07/28 00:52:37;;;;;;;20.77;19.17;;;;;;;-144.27;100.00;69759.91;2065568;28;20767;-72
2022/07/28 00:53:38;;;;;;;20.10;18.60;;;;;;;-144.27;100.00;69759.91;2058268;28;20204;-72
2022/07/28 00:54:40;;;;;;;20.53;18.63;;;;;;;-144.27;100.00;69759.91;2058053;28;20428;-72
2022/07/28 00:55:42;;;;;;;20.20;18.60;;;;;;;-144.27;100.00;69759.91;2057557;28;20194;-72
2022/07/28 00:56:44;;;;;;;20.50;18.80;;;;;;;-144.27;100.00;69759.91;2057441;28;20432;-72
2022/07/28 00:57:46;;;;;;;20.77;18.77;;;;;;;-144.27;100.00;69759.91;2057355;28;20464;-71
2022/07/28 00:58:48;;;;;;;19.73;18.33;;;;;;;-144.27;100.00;69759.91;2057706;28;20516;-72
2022/07/28 00:59:48;;;;;;;20.73;18.77;;;;;;;-144.27;100.00;69759.91;2057360;28;21032;-72
2022/07/28 01:00:50;;;;;;;20.37;18.67;;;;;;;-144.27;100.00;69759.91;2057643;28;20421;-72
2022/07/28 01:01:51;;;;;;;19.57;18.17;;;;;;;-144.27;100.00;69759.91;2057362;28;20201;-72
2022/07/28 01:02:52;;;;;;;19.97;18.10;;;;;;;-144.27;100.00;69759.91;2057266;28;20924;-72
2022/07/28 01:03:57;;;;;;;20.10;18.30;;;;;;;-144.27;100.00;69759.91;2057358;28;20193;-73
2022/07/28 01:04:59;;;;;;;20.37;18.50;;;;;;;-144.27;100.00;69759.91;2058270;28;21015;-71
2022/07/28 01:06:06;;;;;;;20.57;18.67;;;;;;;-144.27;100.00;69759.91;2057424;28;20488;-72
2022/07/28 01:07:13;;;;;;;20.53;18.70;;;;;;;-144.27;100.00;69759.91;2057354;28;20491;-73
2022/07/28 01:08:21;;;;;;;20.10;18.40;;;;;;;-144.27;100.00;69759.91;2057458;28;20414;-72
2022/07/28 01:09:41;;;;;;;19.87;18.37;;;;;;;-144.27;100.00;69759.91;2058245;28;20409;-72
2022/07/28 01:10:48;;;;;;;21.07;18.80;;;;;;;-144.27;100.00;69759.91;2057936;28;20413;-71
2022/07/28 01:11:55;;;;;;;20.27;18.43;;;;;;;-144.27;100.00;69759.91;2057284;28;20440;-72
2022/07/28 01:13:03;;;;;;;20.60;18.53;;;;;;;-144.27;100.00;69759.91;2057595;28;20903;-73
2022/07/28 01:14:09;;;;;;;19.87;18.30;;;;;;;-144.27;100.00;69759.91;2057295;28;20854;-72
2022/07/28 01:15:19;;;;;;;19.70;18.10;;;;;;;-144.27;100.00;69759.91;2057297;28;20449;-71
2022/07/28 01:16:20;;;;;;;21.60;18.63;;;;;;;-144.27;100.00;69759.91;2057638;28;20477;-72
2022/07/28 01:17:28;;;;;;;19.77;17.93;;;;;;;-144.27;100.00;69759.91;2057234;28;20448;-71
2022/07/28 01:18:41;;;;;;;19.40;17.80;;;;;;;-144.27;100.00;69759.91;2057690;28;20245;-72
2022/07/28 01:19:56;;;;;;;19.73;18.10;;;;;;;-144.27;100.00;69759.91;2057198;28;20515;-72
2022/07/28 01:21:01;;;;;;;20.20;18.60;;;;;;;-144.27;100.00;69759.91;2057019;28;20421;-73
2022/07/28 01:22:04;;;;;;;20.07;18.43;;;;;;;-144.27;100.00;69759.91;2057198;28;20492;-73
2022/07/28 01:23:17;;;;;;;20.60;19.00;;;;;;;-144.27;100.00;69759.91;2057364;28;20422;-72
2022/07/28 01:24:23;;;;;;;20.50;18.80;;;;;;;-144.27;100.00;69759.91;2058126;28;20492;-72
2022/07/28 01:25:40;;;;;;;20.37;18.67;;;;;;;-144.27;100.00;69759.91;2057230;28;20548;-72
2022/07/28 01:26:51;;;;;;;20.40;18.80;;;;;;;-144.27;100.00;69759.91;2057519;28;20433;-73
2022/07/28 01:28:06;;;;;;;20.03;18.57;;;;;;;-144.27;100.00;69759.91;2057953;28;20436;-72
2022/07/28 01:29:24;;;;;;;20.37;18.57;;;;;;;-144.27;100.00;69759.91;2058121;28;20887;-72
2022/07/28 01:30:30;;;;;;;21.30;19.40;;;;;;;-144.27;100.00;69759.91;2057273;28;20449;-72
2022/07/28 01:31:38;;;;;;;20.67;18.97;;;;;;;-144.27;100.00;69759.91;2057329;28;20414;-72
2022/07/28 01:32:42;;;;;;;20.60;18.90;;;;;;;-144.27;100.00;69759.91;2058105;28;20398;-72
2022/07/28 01:33:46;;;;;;;21.33;19.53;;;;;;;-144.27;100.00;69759.91;2057964;28;20436;-71
2022/07/28 01:34:49;;;;;;;20.37;18.67;;;;;;;-144.27;100.00;69759.91;2056467;28;20487;-71
2022/07/28 01:35:53;;;;;;;20.53;19.03;;;;;;;-144.27;100.00;69759.91;2057310;28;20433;-72
2022/07/28 01:36:58;;;;;;;20.67;18.80;;;;;;;-144.27;100.00;69759.91;2057038;28;20886;-73
2022/07/28 01:38:04;;;;;;;20.20;18.50;;;;;;;-144.27;100.00;69759.91;2057906;28;20429;-72
2022/07/28 01:39:05;;;;;;;20.90;18.90;;;;;;;-144.27;100.00;69759.91;2057099;28;20459;-72
2022/07/28 01:40:08;;;;;;;19.87;18.17;;;;;;;-144.27;100.00;69759.91;2057236;28;20436;-72
2022/07/28 01:41:19;;;;;;;20.37;18.60;;;;;;;-144.27;100.00;69759.91;2057117;28;20453;-72
2022/07/28 01:42:23;;;;;;;20.27;18.43;;;;;;;-144.27;100.00;69759.91;2057419;28;20456;-73
2022/07/28 01:43:25;;;;;;;20.00;18.33;;;;;;;-144.27;100.00;69759.91;2057112;28;20487;-73
2022/07/28 01:44:28;;;;;;;20.83;18.73;;;;;;;-144.27;100.00;69759.91;2057343;28;20865;-73
2022/07/28 01:45:32;;;;;;;19.43;17.93;;;;;;;-144.27;100.00;69759.91;2065342;28;20560;-72
2022/07/28 01:46:37;;;;;;;20.00;18.07;;;;;;;-144.27;100.00;69759.91;2057804;28;20433;-72
2022/07/28 01:47:39;;;;;;;20.00;18.30;;;;;;;-144.27;100.00;69759.91;2056727;28;20456;-72
2022/07/28 01:48:42;;;;;;;20.10;18.30;;;;;;;-144.27;100.00;69759.91;2057297;28;20468;-72
2022/07/28 01:49:43;;;;;;;20.30;18.40;;;;;;;-144.27;100.00;69759.91;2057716;28;20845;-72
2022/07/28 01:50:46;;;;;;;19.93;18.10;;;;;;;-144.27;100.00;69759.91;2057910;28;20425;-71
2022/07/28 01:51:48;;;;;;;19.57;17.83;;;;;;;-144.27;100.00;69759.91;2056774;28;20229;-72
2022/07/28 01:52:50;;;;;;;19.37;17.87;;;;;;;-144.27;100.00;69759.91;2057015;28;20433;-71
2022/07/28 01:53:51;;;;;;;19.77;18.07;;;;;;;-144.27;100.00;69759.91;2057223;28;20858;-71
2022/07/28 01:54:53;;;;;;;19.97;18.27;;;;;;;-144.27;100.00;69759.91;2057047;28;20445;-72
2022/07/28 01:55:55;;;;;;;20.07;18.37;;;;;;;-144.27;100.00;69759.91;2057199;28;20460;-71
2022/07/28 01:56:57;;;;;;;20.00;18.30;;;;;;;-144.27;100.00;69759.91;2057850;28;20523;-71
2022/07/28 01:57:58;;;;;;;19.87;18.17;;;;;;;-144.27;100.00;69759.91;2057845;28;20531;-72
2022/07/28 01:59:04;;;;;;;20.17;18.10;;;;;;;-144.27;100.00;69759.91;2057949;28;20908;-72
2022/07/28 02:00:08;;;;;;;19.93;17.97;;;;;;;-144.27;100.00;69759.91;2057943;28;20887;-73
2022/07/28 02:01:16;;;;;;;20.53;18.40;;;;;;;-144.27;100.00;69759.91;2057772;28;20832;-72
2022/07/28 02:02:17;;;;;;;20.53;18.60;;;;;;;-144.27;100.00;69759.91;2057831;28;20795;-72
2022/07/28 02:03:20;;;;;;;20.97;18.90;;;;;;;-144.27;100.00;69759.91;2057041;28;20463;-72
2022/07/28 02:04:22;;;;;;;21.00;18.90;;;;;;;-144.27;100.00;69759.91;2057142;28;20436;-72
2022/07/28 02:05:25;;;;;;;20.37;18.60;;;;;;;-144.27;100.00;69759.91;2057708;28;20932;-72
2022/07/28 02:06:26;;;;;;;21.27;19.20;;;;;;;-144.27;100.00;69759.91;2057421;28;20950;-72
2022/07/28 02:07:29;;;;;;;21.00;19.30;;;;;;;-144.27;100.00;69759.91;2057702;28;20421;-72
2022/07/28 02:08:31;;;;;;;20.80;18.90;;;;;;;-144.27;100.00;69759.91;2057687;28;20471;-72
2022/07/28 02:09:34;;;;;;;21.03;19.10;;;;;;;-144.27;100.00;69759.91;2056962;28;20452;-72
2022/07/28 02:10:36;;;;;;;21.73;19.07;;;;;;;-144.27;100.00;69759.91;2057339;28;20430;-72
2022/07/28 02:11:41;;;;;;;20.73;18.93;;;;;;;-144.27;100.00;69759.91;2057699;28;20440;-72
2022/07/28 02:12:43;;;;;;;20.23;18.53;;;;;;;-144.27;100.00;69759.91;2057080;28;20483;-72
2022/07/28 02:13:47;;;;;;;20.30;18.60;;;;;;;-144.27;100.00;69759.91;2056908;28;20810;-72
2022/07/28 02:14:49;;;;;;;20.63;18.67;;;;;;;-144.27;100.00;69759.91;2057628;28;20456;-72
2022/07/28 02:15:52;;;;;;;20.87;18.87;;;;;;;-144.27;100.00;69759.91;2057704;28;20432;-72
2022/07/28 02:16:56;;;;;;;20.20;18.47;;;;;;;-144.27;100.00;69759.91;2062057;28;20491;-72
2022/07/28 02:17:59;;;;;;;20.47;18.67;;;;;;;-144.27;100.00;69759.91;2065692;28;20479;-72
2022/07/28 02:18:59;;;;;;;20.10;18.30;;;;;;;-144.27;100.00;69759.91;2065817;28;20432;-72
2022/07/28 02:20:03;;;;;;;20.07;17.80;;;;;;;-144.27;100.00;69759.91;2065866;28;20464;-72
2022/07/28 02:21:05;;;;;;;19.80;18.07;;;;;;;-144.27;100.00;69759.91;2065132;28;20193;-72
2022/07/28 02:22:07;;;;;;;20.17;18.37;;;;;;;-144.27;100.00;69759.91;2065840;28;20415;-72
2022/07/28 02:23:08;;;;;;;19.67;18.17;;;;;;;-144.27;100.00;69759.91;2065814;28;20526;-72
2022/07/28 02:24:12;;;;;;;20.57;18.70;;;;;;;-144.27;100.00;69759.91;2057098;28;20449;-72
2022/07/28 02:25:13;;;;;;;20.50;18.60;;;;;;;-144.27;100.00;69759.91;2057424;28;20495;-72
2022/07/28 02:26:16;;;;;;;20.07;18.40;;;;;;;-144.27;100.00;69759.91;2056999;28;20440;-72
2022/07/28 02:27:22;;;;;;;24.57;18.30;;;;;;;-144.27;100.00;69759.91;2057309;28;20300;-72
2022/07/28 02:28:24;;;;;;;20.10;18.20;;;;;;;-144.27;100.00;69759.91;2065714;28;20748;-72
2022/07/28 02:29:25;;;;;;;20.10;18.60;;;;;;;-144.27;100.00;69759.91;2065756;28;20468;-72
2022/07/28 02:30:32;;;;;;;20.90;18.70;;;;;;;-144.27;100.00;69759.91;2056956;28;20441;-72
2022/07/28 02:31:37;;;;;;;20.90;19.00;;;;;;;-144.27;100.00;69759.91;2057958;28;20832;-72
2022/07/28 02:32:44;;;;;;;20.00;18.47;;;;;;;-144.27;100.00;69759.91;2065732;28;20427;-72
2022/07/28 02:33:47;;;;;;;19.73;18.03;;;;;;;-144.27;100.00;69759.91;2056956;28;20479;-72
2022/07/28 02:34:50;;;;;;;19.90;17.93;;;;;;;-144.27;100.00;69759.91;2057539;28;20840;-72
2022/07/28 02:35:54;;;;;;;20.03;18.33;;;;;;;-144.27;100.00;69759.91;2065718;28;20428;-72
2022/07/28 02:36:57;;;;;;;19.73;18.13;;;;;;;-144.27;100.00;69759.91;2065446;28;20491;-72
2022/07/28 02:38:01;;;;;;;19.93;18.23;;;;;;;-144.27;100.00;69759.91;2057144;28;20559;-72
2022/07/28 02:39:05;;;;;;;20.30;18.40;;;;;;;-144.27;100.00;69759.91;2049327;28;20454;-73
2022/07/28 02:40:11;;;;;;;20.03;18.53;;;;;;;-144.27;100.00;69759.91;2057468;28;21128;-73
2022/07/28 02:41:15;;;;;;;20.17;18.13;;;;;;;-144.27;100.00;69759.91;2065237;28;20436;-72
2022/07/28 02:42:20;;;;;;;20.13;18.00;;;;;;;-144.27;100.00;69759.91;2065587;28;20428;-72
2022/07/28 02:43:24;;;;;;;19.27;17.67;;;;;;;-144.27;100.00;69759.91;2065635;28;20995;-73
2022/07/28 02:44:29;;;;;;;19.27;17.63;;;;;;;-144.27;100.00;69759.91;2065745;28;20434;-72
2022/07/28 02:45:31;;;;;;;18.97;17.37;;;;;;;-144.27;100.00;69759.91;2066173;28;20459;-72
2022/07/28 02:46:37;;;;;;;18.73;17.13;;;;;;;-144.27;100.00;69759.91;2058497;28;20445;-72
2022/07/28 02:47:44;;;;;;;18.63;17.10;;;;;;;-144.27;100.00;69759.91;2059374;28;21011;-72
2022/07/28 02:48:50;;;;;;;17.53;16.20;;;;;;;-144.27;100.00;69759.91;2067166;28;20401;-72
2022/07/28 02:49:51;;;;;;;20.70;17.00;;;;;;;-144.27;100.00;69759.91;2067221;28;20910;-72
2022/07/28 02:50:53;;;;;;;19.17;17.53;;;;;;;-144.27;100.00;69759.91;2066516;28;20519;-74
2022/07/28 02:51:54;;;;;;;18.23;16.80;;;;;;;-144.27;100.00;69759.91;2058394;28;20967;-73
2022/07/28 02:52:58;;;;;;;18.80;16.93;;;;;;;-144.27;100.00;69759.91;2058365;28;20801;-72
2022/07/28 02:53:59;;;;;;;18.97;17.40;;;;;;;-144.27;100.00;69759.91;2057928;28;20232;-73
2022/07/28 02:55:03;;;;;;;17.33;16.10;;;;;;;-144.27;100.00;69759.91;2058613;28;20433;-72
2022/07/28 02:56:05;;;;;;;18.17;16.73;;;;;;;-144.27;100.00;69759.91;2058337;28;20527;-72
2022/07/28 02:57:07;;;;;;;18.70;17.30;;;;;;;-144.27;100.00;69759.91;2058347;28;20557;-72
2022/07/28 02:58:09;;;;;;;18.33;16.50;;;;;;;-144.27;100.00;69759.91;2067030;28;20485;-72
2022/07/28 02:59:11;;;;;;;18.10;16.63;;;;;;;-144.27;100.00;69759.91;2066940;28;20514;-73
2022/07/28 03:00:13;;;;;;;18.20;16.90;;;;;;;-144.27;100.00;69759.91;2066826;28;20886;-72
2022/07/28 03:01:18;;;;;;;17.80;16.50;;;;;;;-144.27;100.00;69759.91;2067394;28;20472;-72
2022/07/28 03:02:21;;;;;;;17.87;16.47;;;;;;;-144.27;100.00;69759.91;2058267;28;20453;-72
2022/07/28 03:03:25;;;;;;;18.13;16.43;;;;;;;-144.27;100.00;69759.91;2058752;28;20493;-72
2022/07/28 03:05:45;;;;;;;21.50;17.77;;;;;;;-144.27;100.00;69759.91;2054155;28;20429;-72
2022/07/28 03:06:46;;;;;;;18.67;16.93;;;;;;;-144.27;100.00;69759.91;2066655;28;20546;-73
2022/07/28 03:07:51;;;;;;;17.83;16.50;;;;;;;-144.27;100.00;69759.91;2067213;28;20428;-72
2022/07/28 03:08:53;;;;;;;18.27;16.67;;;;;;;-144.27;100.00;69759.91;2058020;28;20213;-72
2022/07/28 03:09:56;;;;;;;18.03;16.57;;;;;;;-144.27;100.00;69759.91;2050323;28;20438;-72
2022/07/28 03:11:07;;;;;;;18.47;16.80;;;;;;;-144.27;100.00;69759.91;2058277;28;20433;-72
2022/07/28 03:12:09;;;;;;;18.77;17.17;;;;;;;-144.27;100.00;69759.91;2066897;28;20875;-72
2022/07/28 03:13:10;;;;;;;18.87;17.10;;;;;;;-144.27;100.00;69759.91;2066814;28;20432;-72
2022/07/28 03:14:11;;;;;;;18.70;17.10;;;;;;;-144.27;100.00;69759.91;2058439;28;20460;-72
2022/07/28 03:15:12;;;;;;;18.27;16.67;;;;;;;-144.27;100.00;69759.91;2058283;28;20218;-73
2022/07/28 03:16:15;;;;;;;18.37;16.77;;;;;;;-144.27;100.00;69759.91;2066936;28;20929;-72
2022/07/28 03:17:16;;;;;;;22.23;17.77;;;;;;;-144.27;100.00;69759.91;2057462;28;20226;-73
2022/07/28 03:18:18;;;;;;;18.33;16.80;;;;;;;-144.27;100.00;69759.91;2058228;28;20436;-72
2022/07/28 03:19:20;;;;;;;18.87;17.10;;;;;;;-144.27;100.00;69759.91;2058790;28;20878;-72
2022/07/28 03:20:21;;;;;;;18.67;17.03;;;;;;;-144.27;100.00;69759.91;2058011;28;20849;-73
2022/07/28 03:21:22;;;;;;;18.30;16.90;;;;;;;-144.27;100.00;69759.91;2049951;28;20497;-73
2022/07/28 03:22:27;;;;;;;18.67;17.10;;;;;;;-144.27;100.00;69759.91;2058246;28;20438;-75
2022/07/28 03:23:33;;;;;;;18.77;17.27;;;;;;;-144.27;100.00;69759.91;2058403;28;20202;-73
2022/07/28 03:24:39;;;;;;;19.47;17.70;;;;;;;-144.27;100.00;69759.91;2058496;28;20460;-73
2022/07/28 03:25:43;;;;;;;19.03;17.37;;;;;;;-144.27;100.00;69759.91;2058744;28;20465;-73
2022/07/28 03:26:48;;;;;;;19.60;17.60;;;;;;;-144.27;100.00;69759.91;2058007;28;20485;-73
2022/07/28 03:27:51;;;;;;;18.53;17.03;;;;;;;-144.27;100.00;69759.91;2058423;28;20485;-73
2022/07/28 03:28:55;;;;;;;19.90;17.70;;;;;;;-144.27;100.00;69759.91;2058044;28;20809;-73
2022/07/28 03:30:01;;;;;;;20.37;18.33;;;;;;;-144.27;100.00;69759.91;2058247;28;20413;-77
2022/07/28 03:31:04;;;;;;;19.93;18.23;;;;;;;-144.27;100.00;69759.91;2058005;28;20437;-78
2022/07/28 03:32:06;;;;;;;19.03;17.50;;;;;;;-144.27;100.00;69759.91;2058341;28;20444;-77
2022/07/28 03:33:07;;;;;;;19.43;17.93;;;;;;;-144.27;100.00;69759.91;2058656;28;20452;-77
2022/07/28 03:34:10;;;;;;;19.00;17.30;;;;;;;-144.27;100.00;69759.91;2058646;28;20433;-77
2022/07/28 03:35:12;;;;;;;18.50;16.87;;;;;;;-144.27;100.00;69759.91;2058809;28;20193;-78
2022/07/28 03:36:19;;;;;;;18.33;16.73;;;;;;;-144.27;100.00;69759.91;2057535;28;20441;-78
2022/07/28 03:37:25;;;;;;;17.70;16.30;;;;;;;-144.27;100.00;69759.91;2058138;28;20915;-77
2022/07/28 03:38:30;;;;;;;18.27;16.57;;;;;;;-144.27;100.00;69759.91;2058326;28;20421;-77
2022/07/28 03:39:35;;;;;;;18.87;17.17;;;;;;;-144.27;100.00;69759.91;2050485;28;21044;-77
2022/07/28 03:40:37;;;;;;;21.00;17.40;;;;;;;-144.27;100.00;69759.91;2050342;28;20485;-78
2022/07/28 03:41:39;;;;;;;19.27;17.37;;;;;;;-144.27;100.00;69759.91;2058004;28;20531;-78
2022/07/28 03:42:42;;;;;;;19.60;18.00;;;;;;;-144.27;100.00;69759.91;2058827;28;20515;-78
2022/07/28 03:43:46;;;;;;;20.27;18.23;;;;;;;-144.27;100.00;69759.91;2058527;28;20433;-78
2022/07/28 03:44:49;;;;;;;18.63;17.10;;;;;;;-144.27;100.00;69759.91;2058303;28;20510;-78
2022/07/28 03:45:50;;;;;;;18.97;17.43;;;;;;;-144.27;100.00;69759.91;2057961;28;20471;-78
2022/07/28 03:46:52;;;;;;;19.27;17.37;;;;;;;-144.27;100.00;69759.91;2058549;28;20436;-77
2022/07/28 03:47:55;;;;;;;18.77;17.20;;;;;;;-144.27;100.00;69759.91;2059180;28;20226;-78
2022/07/28 03:48:56;;;;;;;18.60;17.10;;;;;;;-144.27;100.00;69759.91;2058566;28;20437;-78
2022/07/28 03:49:58;;;;;;;18.63;16.97;;;;;;;-144.27;100.00;69759.91;2058487;28;20459;-78
2022/07/28 03:51:00;;;;;;;18.77;16.83;;;;;;;-144.27;100.00;69759.91;2057475;28;20194;-78
2022/07/28 03:52:02;;;;;;;18.23;16.77;;;;;;;-144.27;100.00;69759.91;2058766;28;20417;-77
2022/07/28 03:53:02;;;;;;;18.53;16.80;;;;;;;-144.27;100.00;69759.91;2059024;28;20441;-77
2022/07/28 03:54:04;;;;;;;18.20;16.70;;;;;;;-144.27;100.00;69759.91;2058758;28;20793;-77
2022/07/28 03:55:06;;;;;;;18.20;16.70;;;;;;;-144.27;100.00;69759.91;2058930;28;20613;-77
2022/07/28 03:56:08;;;;;;;18.17;16.57;;;;;;;-144.27;100.00;69759.91;2058503;28;20457;-77
2022/07/28 03:57:10;;;;;;;19.00;16.70;;;;;;;-144.27;100.00;69759.91;2058369;28;20468;-77
2022/07/28 03:58:12;;;;;;;18.43;16.70;;;;;;;-144.27;100.00;69759.91;2057746;28;20445;-77
2022/07/28 03:59:12;;;;;;;18.83;17.07;;;;;;;-144.27;100.00;69759.91;2057962;28;20441;-78
2022/07/28 04:00:16;;;;;;;18.73;17.03;;;;;;;-144.27;100.00;69759.91;2057735;28;20445;-77
2022/07/28 04:01:17;;;;;;;19.07;17.20;;;;;;;-144.27;100.00;69759.91;2057885;28;20273;-78
2022/07/28 04:02:18;;;;;;;18.90;17.10;;;;;;;-144.27;100.00;69759.91;2057897;28;20445;-78
2022/07/28 04:03:21;;;;;;;18.07;16.67;;;;;;;-144.27;100.00;69759.91;2057899;28;20252;-77
2022/07/28 04:04:25;;;;;;;19.50;17.87;;;;;;;-144.27;100.00;69759.91;2057682;28;20433;-78
2022/07/28 04:05:27;;;;;;;19.13;17.63;;;;;;;-144.27;100.00;69759.91;2057836;28;20437;-77
2022/07/28 04:06:30;;;;;;;19.70;18.10;;;;;;;-144.27;100.00;69759.91;2057359;28;20960;-78
2022/07/28 04:07:30;;;;;;;19.40;17.60;;;;;;;-144.27;100.00;69759.91;2057712;28;20577;-77
2022/07/28 04:08:32;;;;;;;19.60;18.10;;;;;;;-144.27;100.00;69759.91;2058034;28;20504;-78
2022/07/28 04:09:32;;;;;;;19.60;17.93;;;;;;;-144.27;100.00;69759.91;2058652;28;20688;-78
2022/07/28 04:10:35;;;;;;;19.30;17.60;;;;;;;-144.27;100.00;69759.91;2058412;28;20767;-78
2022/07/28 04:11:35;;;;;;;20.23;18.20;;;;;;;-144.27;100.00;69759.91;2057609;28;20691;-78
2022/07/28 04:12:47;;;;;;;19.83;18.10;;;;;;;-144.27;100.00;69759.91;2057806;28;20499;-78
2022/07/28 04:13:48;;;;;;;19.97;18.27;;;;;;;-144.27;100.00;69759.91;2058325;28;20194;-78
2022/07/28 04:14:50;;;;;;;19.90;18.20;;;;;;;-144.27;100.00;69759.91;2058342;28;20449;-78
2022/07/28 04:15:51;;;;;;;19.63;18.03;;;;;;;-144.27;100.00;69759.91;2058348;28;20276;-78
2022/07/28 04:16:55;;;;;;;19.03;17.40;;;;;;;-144.27;100.00;69759.91;2057519;28;20445;-78
2022/07/28 04:18:00;;;;;;;20.23;17.50;;;;;;;-144.27;100.00;69759.91;2057624;28;20198;-78
2022/07/28 04:19:02;;;;;;;20.07;18.00;;;;;;;-144.27;100.00;69759.91;2050077;28;20512;-78
2022/07/28 04:20:03;;;;;;;19.07;17.47;;;;;;;-144.27;100.00;69759.91;2057825;28;20469;-79
2022/07/28 04:21:05;;;;;;;19.30;17.70;;;;;;;-144.27;100.00;69759.91;2057836;28;20477;-78
2022/07/28 04:22:07;;;;;;;19.10;17.40;;;;;;;-144.27;100.00;69759.91;2057576;28;20508;-78
2022/07/28 04:23:09;;;;;;;19.50;17.47;;;;;;;-144.27;100.00;69759.91;2057743;28;20433;-78
2022/07/28 04:24:10;;;;;;;19.80;18.00;;;;;;;-144.27;100.00;69759.91;2057604;28;20497;-78
2022/07/28 04:25:14;;;;;;;20.00;17.90;;;;;;;-144.27;100.00;69759.91;2057578;28;20449;-78
2022/07/28 04:26:16;;;;;;;19.13;17.40;;;;;;;-144.27;100.00;69759.91;2057716;28;20483;-78
2022/07/28 04:27:17;;;;;;;23.87;17.80;;;;;;;-144.27;100.00;69759.91;2058250;28;20421;-78
2022/07/28 04:28:18;;;;;;;18.57;17.07;;;;;;;-144.27;100.00;69759.91;2057658;28;20460;-78
2022/07/28 04:29:20;;;;;;;19.63;17.60;;;;;;;-144.27;100.00;69759.91;2057638;28;20437;-77
2022/07/28 04:30:23;;;;;;;20.87;18.10;;;;;;;-144.27;100.00;69759.91;2057804;28;20276;-78
2022/07/28 04:31:25;;;;;;;19.77;17.97;;;;;;;-144.27;100.00;69759.91;2058251;28;20433;-78
2022/07/28 04:32:26;;;;;;;19.27;17.77;;;;;;;-144.27;100.00;69759.91;2058439;28;20970;-79
2022/07/28 04:33:29;;;;;;;19.97;18.30;;;;;;;-144.27;100.00;69759.91;2058351;28;20491;-79
2022/07/28 04:34:29;;;;;;;20.40;18.50;;;;;;;-144.27;100.00;69759.91;2058236;28;20457;-79
2022/07/28 04:35:33;;;;;;;20.07;18.23;;;;;;;-144.27;100.00;69759.91;2058515;28;20513;-80
2022/07/28 04:36:40;;;;;;;20.07;18.17;;;;;;;-144.27;100.00;69759.91;2057835;28;20553;-79
2022/07/28 04:37:44;;;;;;;20.70;18.60;;;;;;;-144.27;100.00;69759.91;2058379;28;20822;-77
2022/07/28 04:38:45;;;;;;;21.80;18.97;;;;;;;-144.27;100.00;69759.91;2058433;28;20461;-79
2022/07/28 04:39:47;;;;;;;19.87;18.30;;;;;;;-144.27;100.00;69759.91;2058456;28;20440;-79
2022/07/28 04:40:48;;;;;;;20.13;18.33;;;;;;;-144.27;100.00;69759.91;2057436;28;20619;-79
2022/07/28 04:41:51;;;;;;;20.50;18.23;;;;;;;-144.27;100.00;69759.91;2058028;28;20756;-77